LHA2594 LKPR-EDDP
Flight info
| Callsign | LHA2594 |
|---|---|
| Flight time | 0h 50m |
| Altitude | 15000 |
| Route | ARTUP DCT BEFRE/N0339F240 T204 IVDUF T951 YAWOY YAWO1R |
| Aircraft | DH8D/M-SDE1E2FGIJ1RWYZ/S |
Departure
| Time | 2026-05-05 13:02 |
|---|---|
| Airport | Václav Havel Airport Prague (LKPR) |
Arrival
| Time | 2026-05-05 13:52 |
|---|---|
| Airport | Leipzig/Halle Airport (EDDP) |
| Time | Latitude | Longitude | Altitude | Speed | Heading |
|---|---|---|---|---|---|
| 2026-05-05 12:33 | 50.10805 | 14.26138 | 1175 ft | 0 kts | 124° |
| 2026-05-05 12:55 | 50.10801 | 14.26146 | 1175 ft | 2 kts | 124° |
| 2026-05-05 12:55 | 50.10780 | 14.26185 | 1175 ft | 7 kts | 148° |
| 2026-05-05 12:56 | 50.10720 | 14.26164 | 1175 ft | 11 kts | 213° |
| 2026-05-05 12:56 | 50.10638 | 14.26078 | 1175 ft | 15 kts | 213° |
| 2026-05-05 12:56 | 50.10546 | 14.25986 | 1175 ft | 15 kts | 217° |
| 2026-05-05 12:56 | 50.10495 | 14.25836 | 1175 ft | 16 kts | 257° |
| 2026-05-05 12:57 | 50.10475 | 14.25656 | 1175 ft | 17 kts | 261° |
| 2026-05-05 12:57 | 50.10453 | 14.25473 | 1175 ft | 17 kts | 258° |
| 2026-05-05 12:57 | 50.10430 | 14.25287 | 1175 ft | 17 kts | 259° |
| 2026-05-05 12:57 | 50.10406 | 14.25098 | 1175 ft | 18 kts | 258° |
| 2026-05-05 12:58 | 50.10382 | 14.24902 | 1175 ft | 18 kts | 259° |
| 2026-05-05 12:58 | 50.10357 | 14.24704 | 1175 ft | 18 kts | 258° |
| 2026-05-05 12:58 | 50.10331 | 14.24501 | 1175 ft | 19 kts | 259° |
| 2026-05-05 12:58 | 50.10306 | 14.24294 | 1175 ft | 19 kts | 258° |
| 2026-05-05 12:59 | 50.10280 | 14.24083 | 1176 ft | 19 kts | 259° |
| 2026-05-05 12:59 | 50.10254 | 14.23885 | 1179 ft | 17 kts | 258° |
| 2026-05-05 12:59 | 50.10230 | 14.23701 | 1182 ft | 16 kts | 259° |
| 2026-05-05 13:00 | 50.10261 | 14.23443 | 1186 ft | 9 kts | 330° |
| 2026-05-05 13:00 | 50.10324 | 14.23424 | 1186 ft | 9 kts | 1° |
| 2026-05-05 13:01 | 50.10453 | 14.23541 | 1185 ft | 0 kts | 60° |
| 2026-05-05 13:01 | 50.10547 | 14.23843 | 1180 ft | 78 kts | 64° |
| 2026-05-05 13:01 | 50.10886 | 14.24974 | 1200 ft | 144 kts | 66° |
| 2026-05-05 13:01 | 50.11396 | 14.26452 | 1563 ft | 160 kts | 59° |
| 2026-05-05 13:02 | 50.11850 | 14.28013 | 2289 ft | 161 kts | 63° |
| 2026-05-05 13:02 | 50.12318 | 14.29648 | 2712 ft | 174 kts | 62° |
| 2026-05-05 13:02 | 50.12834 | 14.31396 | 3172 ft | 185 kts | 62° |
| 2026-05-05 13:02 | 50.13372 | 14.33217 | 3795 ft | 183 kts | 62° |
| 2026-05-05 13:03 | 50.13908 | 14.35036 | 4344 ft | 190 kts | 61° |
| 2026-05-05 13:03 | 50.14475 | 14.36940 | 4837 ft | 199 kts | 62° |
| 2026-05-05 13:03 | 50.15047 | 14.38864 | 5544 ft | 194 kts | 61° |
| 2026-05-05 13:03 | 50.15617 | 14.40786 | 6063 ft | 202 kts | 62° |
| 2026-05-05 13:04 | 50.16205 | 14.42756 | 6614 ft | 204 kts | 62° |
| 2026-05-05 13:04 | 50.16801 | 14.44764 | 7207 ft | 206 kts | 62° |
| 2026-05-05 13:04 | 50.17408 | 14.46802 | 7726 ft | 211 kts | 63° |
| 2026-05-05 13:04 | 50.18021 | 14.48862 | 8311 ft | 211 kts | 63° |
| 2026-05-05 13:05 | 50.18644 | 14.50960 | 8809 ft | 215 kts | 62° |
| 2026-05-05 13:05 | 50.19268 | 14.53060 | 9353 ft | 217 kts | 63° |
| 2026-05-05 13:05 | 50.19902 | 14.55191 | 9877 ft | 219 kts | 64° |
| 2026-05-05 13:05 | 50.20541 | 14.57345 | 10389 ft | 221 kts | 63° |
| 2026-05-05 13:06 | 50.21193 | 14.59544 | 10898 ft | 223 kts | 64° |
| 2026-05-05 13:06 | 50.21843 | 14.61735 | 11384 ft | 225 kts | 64° |
| 2026-05-05 13:06 | 50.22498 | 14.63946 | 11862 ft | 227 kts | 65° |
| 2026-05-05 13:06 | 50.23180 | 14.66260 | 12041 ft | 245 kts | 66° |
| 2026-05-05 13:07 | 50.23926 | 14.68785 | 12162 ft | 264 kts | 66° |
| 2026-05-05 13:07 | 50.24704 | 14.71416 | 12511 ft | 271 kts | 66° |
| 2026-05-05 13:07 | 50.25521 | 14.74101 | 12905 ft | 276 kts | 61° |
| 2026-05-05 13:07 | 50.26823 | 14.76243 | 13261 ft | 275 kts | 26° |
| 2026-05-05 13:08 | 50.28603 | 14.77143 | 13659 ft | 272 kts | 9° |
| 2026-05-05 13:08 | 50.30456 | 14.77777 | 14079 ft | 274 kts | 8° |
| 2026-05-05 13:08 | 50.32324 | 14.78403 | 14492 ft | 276 kts | 7° |
| 2026-05-05 13:08 | 50.34219 | 14.79032 | 14905 ft | 278 kts | 7° |
| 2026-05-05 13:09 | 50.36107 | 14.79660 | 15299 ft | 280 kts | 7° |
| 2026-05-05 13:09 | 50.38003 | 14.80290 | 15686 ft | 281 kts | 6° |
| 2026-05-05 13:09 | 50.39914 | 14.80926 | 16063 ft | 283 kts | 6° |
| 2026-05-05 13:09 | 50.41836 | 14.81566 | 16432 ft | 284 kts | 6° |
| 2026-05-05 13:10 | 50.43764 | 14.82209 | 16794 ft | 286 kts | 6° |
| 2026-05-05 13:10 | 50.45716 | 14.82860 | 17148 ft | 287 kts | 5° |
| 2026-05-05 13:10 | 50.47654 | 14.83508 | 17492 ft | 288 kts | 5° |
| 2026-05-05 13:10 | 50.49628 | 14.84167 | 17834 ft | 289 kts | 5° |
| 2026-05-05 13:11 | 50.51586 | 14.84823 | 18164 ft | 290 kts | 5° |
| 2026-05-05 13:11 | 50.53541 | 14.85477 | 18488 ft | 291 kts | 4° |
| 2026-05-05 13:11 | 50.55522 | 14.86141 | 18807 ft | 292 kts | 4° |
| 2026-05-05 13:11 | 50.57521 | 14.86812 | 19120 ft | 293 kts | 4° |
| 2026-05-05 13:12 | 50.59501 | 14.87476 | 19422 ft | 294 kts | 4° |
| 2026-05-05 13:12 | 50.61499 | 14.88148 | 19721 ft | 294 kts | 4° |
| 2026-05-05 13:12 | 50.63482 | 14.88815 | 20008 ft | 295 kts | 3° |
| 2026-05-05 13:12 | 50.65489 | 14.89490 | 20262 ft | 295 kts | 3° |
| 2026-05-05 13:13 | 50.67490 | 14.90109 | 20507 ft | 291 kts | 357° |
| 2026-05-05 13:13 | 50.69388 | 14.89713 | 20678 ft | 268 kts | 329° |
| 2026-05-05 13:13 | 50.71051 | 14.88435 | 20899 ft | 265 kts | 324° |
| 2026-05-05 13:13 | 50.72681 | 14.87123 | 21142 ft | 265 kts | 324° |
| 2026-05-05 13:14 | 50.74329 | 14.85788 | 21369 ft | 265 kts | 324° |
| 2026-05-05 13:14 | 50.75950 | 14.84470 | 21587 ft | 265 kts | 324° |
| 2026-05-05 13:14 | 50.77594 | 14.83132 | 21797 ft | 265 kts | 324° |
| 2026-05-05 13:14 | 50.79220 | 14.81809 | 21998 ft | 265 kts | 324° |
| 2026-05-05 13:15 | 50.80852 | 14.80480 | 22191 ft | 265 kts | 324° |
| 2026-05-05 13:15 | 50.82487 | 14.79147 | 22376 ft | 265 kts | 324° |
| 2026-05-05 13:15 | 50.84114 | 14.77821 | 22641 ft | 261 kts | 324° |
| 2026-05-05 13:15 | 50.85705 | 14.76528 | 22917 ft | 257 kts | 323° |
| 2026-05-05 13:16 | 50.87277 | 14.75245 | 23174 ft | 254 kts | 323° |
| 2026-05-05 13:16 | 50.88831 | 14.73974 | 23380 ft | 252 kts | 323° |
| 2026-05-05 13:16 | 50.90377 | 14.72708 | 23553 ft | 251 kts | 323° |
| 2026-05-05 13:16 | 50.91931 | 14.71434 | 23696 ft | 251 kts | 323° |
| 2026-05-05 13:17 | 50.93494 | 14.70162 | 23770 ft | 255 kts | 325° |
| 2026-05-05 13:17 | 50.95188 | 14.69228 | 23799 ft | 268 kts | 334° |
| 2026-05-05 13:17 | 50.97008 | 14.68505 | 23803 ft | 273 kts | 335° |
| 2026-05-05 13:17 | 50.98883 | 14.67774 | 23801 ft | 275 kts | 335° |
| 2026-05-05 13:18 | 51.00733 | 14.67052 | 23804 ft | 275 kts | 335° |
| 2026-05-05 13:18 | 51.02586 | 14.66324 | 23805 ft | 275 kts | 335° |
| 2026-05-05 13:18 | 51.04421 | 14.65598 | 23803 ft | 275 kts | 335° |
| 2026-05-05 13:18 | 51.06279 | 14.64859 | 23806 ft | 274 kts | 335° |
| 2026-05-05 13:19 | 51.08129 | 14.64121 | 23813 ft | 275 kts | 335° |
| 2026-05-05 13:19 | 51.09968 | 14.63385 | 23820 ft | 275 kts | 335° |
| 2026-05-05 13:19 | 51.11830 | 14.62640 | 23824 ft | 274 kts | 335° |
| 2026-05-05 13:19 | 51.13669 | 14.61900 | 23834 ft | 274 kts | 335° |
| 2026-05-05 13:20 | 51.15516 | 14.61156 | 23841 ft | 275 kts | 335° |
| 2026-05-05 13:20 | 51.17366 | 14.60410 | 23847 ft | 276 kts | 335° |
| 2026-05-05 13:20 | 51.19230 | 14.59657 | 23852 ft | 277 kts | 335° |
| 2026-05-05 13:20 | 51.21050 | 14.58774 | 23839 ft | 268 kts | 324° |
| 2026-05-05 13:21 | 51.22306 | 14.56881 | 23855 ft | 241 kts | 292° |
| 2026-05-05 13:21 | 51.22644 | 14.54332 | 23884 ft | 235 kts | 273° |
| 2026-05-05 13:21 | 51.22678 | 14.51689 | 23862 ft | 237 kts | 271° |
| 2026-05-05 13:21 | 51.22664 | 14.49069 | 23856 ft | 239 kts | 270° |
| 2026-05-05 13:22 | 51.22620 | 14.46417 | 23858 ft | 240 kts | 269° |
| 2026-05-05 13:22 | 51.22556 | 14.43746 | 23860 ft | 241 kts | 269° |
| 2026-05-05 13:22 | 51.22478 | 14.41077 | 23860 ft | 242 kts | 269° |
| 2026-05-05 13:22 | 51.22390 | 14.38415 | 23859 ft | 243 kts | 268° |
| 2026-05-05 13:23 | 51.22293 | 14.35722 | 23859 ft | 244 kts | 268° |
| 2026-05-05 13:23 | 51.22189 | 14.33000 | 23861 ft | 245 kts | 268° |
| 2026-05-05 13:23 | 51.22081 | 14.30298 | 23860 ft | 246 kts | 267° |
| 2026-05-05 13:23 | 51.21968 | 14.27571 | 23859 ft | 247 kts | 267° |
| 2026-05-05 13:24 | 51.21852 | 14.24834 | 23859 ft | 249 kts | 267° |
| 2026-05-05 13:24 | 51.21732 | 14.22057 | 23859 ft | 250 kts | 267° |
| 2026-05-05 13:24 | 51.21610 | 14.19279 | 23859 ft | 250 kts | 267° |
| 2026-05-05 13:24 | 51.21488 | 14.16513 | 23858 ft | 251 kts | 267° |
| 2026-05-05 13:25 | 51.21363 | 14.13735 | 23858 ft | 252 kts | 267° |
| 2026-05-05 13:25 | 51.21237 | 14.10954 | 23858 ft | 253 kts | 267° |
| 2026-05-05 13:25 | 51.21109 | 14.08150 | 23858 ft | 253 kts | 267° |
| 2026-05-05 13:25 | 51.20981 | 14.05359 | 23858 ft | 254 kts | 267° |
| 2026-05-05 13:26 | 51.20852 | 14.02568 | 23858 ft | 254 kts | 267° |
| 2026-05-05 13:26 | 51.20721 | 13.99775 | 23858 ft | 254 kts | 267° |
| 2026-05-05 13:26 | 51.20589 | 13.96961 | 23858 ft | 253 kts | 267° |
| 2026-05-05 13:26 | 51.20458 | 13.94163 | 23858 ft | 253 kts | 267° |
| 2026-05-05 13:27 | 51.20325 | 13.91354 | 23857 ft | 253 kts | 267° |
| 2026-05-05 13:27 | 51.20193 | 13.88587 | 23858 ft | 253 kts | 267° |
| 2026-05-05 13:27 | 51.20058 | 13.85770 | 23857 ft | 252 kts | 267° |
| 2026-05-05 13:27 | 51.19924 | 13.82999 | 23857 ft | 252 kts | 267° |
| 2026-05-05 13:28 | 51.19790 | 13.80219 | 23857 ft | 251 kts | 267° |
| 2026-05-05 13:28 | 51.19655 | 13.77458 | 23857 ft | 250 kts | 267° |
| 2026-05-05 13:28 | 51.19519 | 13.74680 | 23857 ft | 250 kts | 267° |
| 2026-05-05 13:28 | 51.19384 | 13.71927 | 23857 ft | 249 kts | 267° |
| 2026-05-05 13:29 | 51.19249 | 13.69186 | 23857 ft | 249 kts | 267° |
| 2026-05-05 13:29 | 51.19114 | 13.66459 | 23857 ft | 248 kts | 267° |
| 2026-05-05 13:29 | 51.18977 | 13.63707 | 23857 ft | 247 kts | 267° |
| 2026-05-05 13:29 | 51.18840 | 13.60966 | 23745 ft | 248 kts | 267° |
| 2026-05-05 13:30 | 51.18704 | 13.58261 | 23433 ft | 248 kts | 267° |
| 2026-05-05 13:30 | 51.18562 | 13.55488 | 23027 ft | 251 kts | 266° |
| 2026-05-05 13:30 | 51.18420 | 13.52707 | 22582 ft | 254 kts | 266° |
| 2026-05-05 13:30 | 51.18277 | 13.49925 | 22121 ft | 255 kts | 266° |
| 2026-05-05 13:31 | 51.18132 | 13.47123 | 21653 ft | 256 kts | 266° |
| 2026-05-05 13:31 | 51.17985 | 13.44275 | 21176 ft | 258 kts | 265° |
| 2026-05-05 13:31 | 51.17838 | 13.41450 | 20701 ft | 259 kts | 265° |
| 2026-05-05 13:31 | 51.17687 | 13.38561 | 20216 ft | 260 kts | 265° |
| 2026-05-05 13:32 | 51.17538 | 13.35708 | 19724 ft | 262 kts | 265° |
| 2026-05-05 13:32 | 51.17391 | 13.32817 | 19236 ft | 264 kts | 265° |
| 2026-05-05 13:32 | 51.17350 | 13.29860 | 18743 ft | 267 kts | 268° |
| 2026-05-05 13:32 | 51.17357 | 13.26900 | 18248 ft | 269 kts | 268° |
| 2026-05-05 13:33 | 51.17360 | 13.23938 | 17755 ft | 270 kts | 268° |
| 2026-05-05 13:33 | 51.17360 | 13.20946 | 17256 ft | 272 kts | 268° |
| 2026-05-05 13:33 | 51.17357 | 13.17943 | 16756 ft | 274 kts | 267° |
| 2026-05-05 13:33 | 51.17350 | 13.14869 | 16242 ft | 276 kts | 267° |
| 2026-05-05 13:34 | 51.17341 | 13.11820 | 15732 ft | 278 kts | 266° |
| 2026-05-05 13:34 | 51.17330 | 13.08765 | 15221 ft | 280 kts | 266° |
| 2026-05-05 13:34 | 51.17317 | 13.05633 | 14697 ft | 282 kts | 265° |
| 2026-05-05 13:34 | 51.17302 | 13.02508 | 14174 ft | 284 kts | 265° |
| 2026-05-05 13:35 | 51.17286 | 12.99378 | 13650 ft | 286 kts | 265° |
| 2026-05-05 13:35 | 51.17269 | 12.96166 | 13113 ft | 288 kts | 264° |
| 2026-05-05 13:35 | 51.17250 | 12.92993 | 12583 ft | 291 kts | 264° |
| 2026-05-05 13:35 | 51.17231 | 12.89781 | 12046 ft | 293 kts | 265° |
| 2026-05-05 13:36 | 51.17210 | 12.86536 | 11501 ft | 295 kts | 265° |
| 2026-05-05 13:36 | 51.17219 | 12.83268 | 11016 ft | 299 kts | 269° |
| 2026-05-05 13:36 | 51.17773 | 12.80046 | 10912 ft | 298 kts | 288° |
| 2026-05-05 13:36 | 51.18576 | 12.77018 | 10876 ft | 299 kts | 288° |
| 2026-05-05 13:37 | 51.19387 | 12.73970 | 10861 ft | 300 kts | 289° |
| 2026-05-05 13:37 | 51.20207 | 12.70889 | 10859 ft | 301 kts | 289° |
| 2026-05-05 13:37 | 51.21017 | 12.67832 | 10859 ft | 302 kts | 288° |
| 2026-05-05 13:37 | 51.21838 | 12.64719 | 10861 ft | 303 kts | 288° |
| 2026-05-05 13:38 | 51.22652 | 12.61624 | 10858 ft | 303 kts | 288° |
| 2026-05-05 13:38 | 51.23457 | 12.58558 | 10859 ft | 303 kts | 288° |
| 2026-05-05 13:38 | 51.24271 | 12.55445 | 10855 ft | 304 kts | 288° |
| 2026-05-05 13:38 | 51.25082 | 12.52337 | 10856 ft | 304 kts | 288° |
| 2026-05-05 13:39 | 51.25708 | 12.49146 | 10831 ft | 298 kts | 272° |
| 2026-05-05 13:39 | 51.25659 | 12.45898 | 10867 ft | 292 kts | 261° |
| 2026-05-05 13:39 | 51.25514 | 12.42692 | 10867 ft | 292 kts | 262° |
| 2026-05-05 13:39 | 51.25359 | 12.39438 | 10863 ft | 292 kts | 261° |
| 2026-05-05 13:40 | 51.25204 | 12.36187 | 10860 ft | 293 kts | 261° |
| 2026-05-05 13:40 | 51.25049 | 12.32942 | 10857 ft | 291 kts | 262° |
| 2026-05-05 13:40 | 51.24897 | 12.29732 | 10859 ft | 290 kts | 262° |
| 2026-05-05 13:40 | 51.24787 | 12.26548 | 10848 ft | 290 kts | 267° |
| 2026-05-05 13:41 | 51.25140 | 12.23334 | 10874 ft | 292 kts | 280° |
| 2026-05-05 13:41 | 51.25649 | 12.20219 | 10863 ft | 292 kts | 280° |
| 2026-05-05 13:41 | 51.26162 | 12.17090 | 10854 ft | 291 kts | 280° |
| 2026-05-05 13:41 | 51.26672 | 12.13974 | 10855 ft | 290 kts | 280° |
| 2026-05-05 13:42 | 51.27178 | 12.10860 | 10854 ft | 289 kts | 280° |
| 2026-05-05 13:42 | 51.27679 | 12.07762 | 10858 ft | 288 kts | 280° |
| 2026-05-05 13:42 | 51.28177 | 12.04663 | 10859 ft | 287 kts | 280° |
| 2026-05-05 13:42 | 51.28547 | 12.01548 | 10841 ft | 283 kts | 269° |
| 2026-05-05 13:43 | 51.28453 | 11.98443 | 10859 ft | 279 kts | 262° |
| 2026-05-05 13:43 | 51.28296 | 11.95371 | 10860 ft | 279 kts | 262° |
| 2026-05-05 13:43 | 51.28134 | 11.92278 | 10857 ft | 279 kts | 262° |
| 2026-05-05 13:43 | 51.27974 | 11.89209 | 10858 ft | 279 kts | 262° |
| 2026-05-05 13:44 | 51.27814 | 11.86134 | 10797 ft | 278 kts | 262° |
| 2026-05-05 13:44 | 51.27657 | 11.83083 | 10445 ft | 274 kts | 262° |
| 2026-05-05 13:44 | 51.27499 | 11.80056 | 10069 ft | 273 kts | 263° |
| 2026-05-05 13:44 | 51.27343 | 11.77074 | 9699 ft | 270 kts | 263° |
| 2026-05-05 13:45 | 51.27248 | 11.74107 | 9307 ft | 266 kts | 271° |
| 2026-05-05 13:45 | 51.27879 | 11.71393 | 8895 ft | 266 kts | 305° |
| 2026-05-05 13:45 | 51.29370 | 11.69733 | 8512 ft | 268 kts | 338° |
| 2026-05-05 13:45 | 51.31187 | 11.69202 | 8163 ft | 265 kts | 349° |
| 2026-05-05 13:46 | 51.33002 | 11.68879 | 7784 ft | 261 kts | 350° |
| 2026-05-05 13:46 | 51.34788 | 11.68594 | 7409 ft | 257 kts | 351° |
| 2026-05-05 13:46 | 51.36554 | 11.68329 | 7038 ft | 253 kts | 351° |
| 2026-05-05 13:46 | 51.38302 | 11.68280 | 6640 ft | 254 kts | 7° |
| 2026-05-05 13:47 | 51.39844 | 11.69610 | 6234 ft | 260 kts | 44° |
| 2026-05-05 13:47 | 51.40643 | 11.72198 | 5868 ft | 265 kts | 78° |
| 2026-05-05 13:47 | 51.40863 | 11.75111 | 5536 ft | 267 kts | 83° |
| 2026-05-05 13:47 | 51.41031 | 11.78115 | 5170 ft | 269 kts | 83° |
| 2026-05-05 13:48 | 51.41181 | 11.81071 | 4803 ft | 269 kts | 84° |
| 2026-05-05 13:48 | 51.41314 | 11.84055 | 4416 ft | 261 kts | 84° |
| 2026-05-05 13:48 | 51.41431 | 11.86886 | 4035 ft | 252 kts | 84° |
| 2026-05-05 13:48 | 51.41542 | 11.89635 | 3647 ft | 245 kts | 84° |
| 2026-05-05 13:49 | 51.41662 | 11.92314 | 3264 ft | 237 kts | 83° |
| 2026-05-05 13:49 | 51.41772 | 11.94900 | 2992 ft | 228 kts | 83° |
| 2026-05-05 13:49 | 51.41931 | 11.97450 | 2908 ft | 230 kts | 82° |
| 2026-05-05 13:49 | 51.42063 | 11.99989 | 2882 ft | 231 kts | 83° |
| 2026-05-05 13:50 | 51.42192 | 12.02562 | 2865 ft | 231 kts | 83° |
| 2026-05-05 13:50 | 51.42323 | 12.05132 | 2548 ft | 233 kts | 83° |
| 2026-05-05 13:50 | 51.42452 | 12.07708 | 2224 ft | 233 kts | 83° |
| 2026-05-05 13:50 | 51.42578 | 12.10285 | 1899 ft | 229 kts | 83° |
| 2026-05-05 13:51 | 51.42699 | 12.12773 | 1622 ft | 217 kts | 83° |
| 2026-05-05 13:51 | 51.42810 | 12.15101 | 1313 ft | 204 kts | 83° |
| 2026-05-05 13:51 | 51.42915 | 12.17271 | 1037 ft | 183 kts | 84° |
| 2026-05-05 13:51 | 51.43006 | 12.19182 | 826 ft | 161 kts | 83° |
| 2026-05-05 13:52 | 51.43083 | 12.20841 | 615 ft | 141 kts | 84° |
| 2026-05-05 13:52 | 51.43160 | 12.22287 | 480 ft | 105 kts | 83° |
| 2026-05-05 13:52 | 51.43205 | 12.23148 | 480 ft | 63 kts | 85° |
| 2026-05-05 13:52 | 51.43229 | 12.23780 | 480 ft | 49 kts | 86° |
| 2026-05-05 13:53 | 51.43249 | 12.24264 | 480 ft | 37 kts | 88° |
| 2026-05-05 13:53 | 51.43206 | 12.24606 | 480 ft | 25 kts | 110° |
| 2026-05-05 13:53 | 51.43147 | 12.24829 | 480 ft | 22 kts | 115° |
| 2026-05-05 13:53 | 51.43073 | 12.25063 | 480 ft | 24 kts | 120° |
| 2026-05-05 13:54 | 51.42916 | 12.25082 | 480 ft | 26 kts | 192° |
| 2026-05-05 13:54 | 51.42743 | 12.25016 | 490 ft | 25 kts | 193° |
| 2026-05-05 13:54 | 51.42568 | 12.24952 | 495 ft | 26 kts | 193° |
| 2026-05-05 13:54 | 51.42396 | 12.24886 | 500 ft | 24 kts | 193° |
| 2026-05-05 13:55 | 51.42232 | 12.24823 | 504 ft | 24 kts | 193° |
| 2026-05-05 13:55 | 51.42069 | 12.24761 | 507 ft | 23 kts | 193° |
| 2026-05-05 13:55 | 51.41915 | 12.24700 | 502 ft | 22 kts | 193° |
| 2026-05-05 13:55 | 51.41743 | 12.24639 | 480 ft | 27 kts | 192° |
| 2026-05-05 13:56 | 51.41652 | 12.24459 | 480 ft | 19 kts | 265° |
| 2026-05-05 13:56 | 51.41642 | 12.24254 | 480 ft | 18 kts | 266° |
| 2026-05-05 13:56 | 51.41632 | 12.24016 | 480 ft | 24 kts | 265° |
| 2026-05-05 13:56 | 51.41618 | 12.23723 | 480 ft | 28 kts | 265° |
| 2026-05-05 13:57 | 51.41602 | 12.23420 | 480 ft | 24 kts | 264° |
| 2026-05-05 13:57 | 51.41612 | 12.23168 | 480 ft | 21 kts | 284° |
| 2026-05-05 13:57 | 51.41649 | 12.22947 | 480 ft | 19 kts | 285° |
| 2026-05-05 13:57 | 51.41682 | 12.22749 | 480 ft | 17 kts | 285° |
| 2026-05-05 13:58 | 51.41712 | 12.22574 | 480 ft | 16 kts | 285° |
| 2026-05-05 13:58 | 51.41745 | 12.22378 | 480 ft | 19 kts | 285° |
| 2026-05-05 13:58 | 51.41783 | 12.22157 | 480 ft | 21 kts | 285° |
| 2026-05-05 13:58 | 51.41819 | 12.21946 | 480 ft | 18 kts | 284° |
| 2026-05-05 13:59 | 51.41898 | 12.21757 | 480 ft | 7 kts | 12° |
| 2026-05-05 13:59 | 51.41937 | 12.21773 | 480 ft | 2 kts | 14° |
| 2026-05-05 14:00 | 51.41940 | 12.21774 | 480 ft | 0 kts | 14° |